Time;durP1;ratioP1;P1;durP2;ratioP2;P2;SDS_P1;SDS_P2;PMS_P1;PMS_P2;Temp;Humidity;BMP_temperature;BMP_pressure;BME280_temperature;BME280_humidity;BME280_pressure;Samples;Min_cycle;Max_cycle;Signal;HPM_P1;HPM_P2
2021/05/14 00:01:21;;;;;;;1.58;0.88;;;13.70;99.90;;;;;;5065408;28;20095;-50
2021/05/14 00:03:48;;;;;;;1.45;0.80;;;13.70;99.90;;;;;;5063042;28;20173;-50
2021/05/14 00:06:14;;;;;;;1.27;0.70;;;13.60;99.90;;;;;;5065678;28;20035;-49
2021/05/14 00:08:40;;;;;;;0.93;0.82;;;13.60;99.90;;;;;;5064918;28;20027;-49
2021/05/14 00:11:12;;;;;;;1.02;0.80;;;13.30;99.90;;;;;;5101978;27;20768;-49
2021/05/14 00:13:38;;;;;;;1.20;0.88;;;13.00;99.90;;;;;;5101994;28;20032;-49
2021/05/14 00:16:06;;;;;;;1.42;0.90;;;13.10;99.90;;;;;;5102372;28;20027;-49
2021/05/14 00:18:31;;;;;;;1.20;1.00;;;13.20;99.90;;;;;;5102300;28;20089;-50
2021/05/14 00:20:57;;;;;;;0.70;0.70;;;13.20;99.90;;;;;;5099973;28;20020;-49
2021/05/14 00:23:23;;;;;;;1.92;0.90;;;13.10;99.90;;;;;;5094207;28;20028;-50
2021/05/14 00:25:49;;;;;;;0.93;0.77;;;13.10;99.90;;;;;;5094795;28;20486;-50
2021/05/14 00:28:15;;;;;;;1.10;0.70;;;13.10;99.90;;;;;;5100358;28;20031;-48
2021/05/14 00:30:41;;;;;;;0.60;0.60;;;13.20;99.90;;;;;;5101720;28;20038;-50
2021/05/14 00:33:07;;;;;;;1.13;0.80;;;13.10;99.90;;;;;;5102721;28;20465;-49
2021/05/14 00:35:32;;;;;;;1.58;0.73;;;13.10;99.90;;;;;;5101783;28;20059;-49
2021/05/14 00:37:58;;;;;;;0.70;0.70;;;13.20;99.90;;;;;;5102378;28;20028;-50
2021/05/14 00:40:24;;;;;;;1.63;0.77;;;13.20;99.90;;;;;;5102392;28;20032;-49
2021/05/14 00:42:49;;;;;;;2.17;0.90;;;13.10;99.90;;;;;;5102206;28;20023;-49
2021/05/14 00:45:15;;;;;;;1.50;0.80;;;13.10;99.90;;;;;;5102970;28;20054;-49
2021/05/14 00:47:42;;;;;;;1.10;0.80;;;13.00;99.90;;;;;;5101770;28;20035;-53
2021/05/14 00:50:08;;;;;;;0.70;0.70;;;12.80;99.90;;;;;;5102038;28;20574;-50
2021/05/14 00:52:35;;;;;;;0.73;0.60;;;12.80;99.90;;;;;;5101983;28;20090;-49
2021/05/14 00:55:00;;;;;;;1.23;0.98;;;12.80;99.90;;;;;;5100993;28;20466;-51
2021/05/14 00:57:26;;;;;;;1.02;0.73;;;12.70;99.90;;;;;;5101896;28;20038;-48
2021/05/14 00:59:52;;;;;;;1.17;0.90;;;12.70;99.90;;;;;;5101752;28;20050;-49
2021/05/14 01:02:18;;;;;;;1.05;0.90;;;12.80;99.90;;;;;;5102691;28;20051;-49
2021/05/14 01:04:45;;;;;;;1.25;0.90;;;12.80;99.90;;;;;;5102050;28;20115;-48
2021/05/14 01:07:13;;;;;;;1.05;0.80;;;13.00;99.90;;;;;;5101850;28;20020;-49
2021/05/14 01:09:40;;;;;;;1.08;0.77;;;12.90;99.90;;;;;;5094700;28;20144;-50
2021/05/14 01:12:08;;;;;;;1.77;0.95;;;13.00;99.90;;;;;;5081400;28;20028;-49
2021/05/14 01:14:33;;;;;;;1.63;1.10;;;12.90;99.90;;;;;;5080941;28;20063;-49
2021/05/14 01:16:59;;;;;;;1.77;1.00;;;12.90;99.90;;;;;;5082071;28;20047;-49
2021/05/14 01:19:25;;;;;;;1.30;0.90;;;13.00;99.90;;;;;;5081052;28;20111;-48
2021/05/14 01:21:50;;;;;;;1.23;0.70;;;13.00;99.90;;;;;;5089742;28;20383;-49
2021/05/14 01:24:16;;;;;;;1.10;0.50;;;12.80;99.90;;;;;;5088448;28;20040;-49
2021/05/14 01:26:42;;;;;;;0.63;0.55;;;12.80;99.90;;;;;;5085576;28;20031;-50
2021/05/14 01:29:11;;;;;;;1.88;0.80;;;12.70;99.90;;;;;;5086107;28;20457;-48
2021/05/14 01:31:37;;;;;;;1.25;1.05;;;12.80;99.90;;;;;;5072572;28;20657;-48
2021/05/14 01:34:06;;;;;;;0.70;0.70;;;12.70;99.90;;;;;;5067710;28;20161;-48
2021/05/14 01:36:32;;;;;;;0.75;0.60;;;12.80;99.90;;;;;;5067540;28;20025;-52
2021/05/14 01:39:17;;;;;;;0.85;0.80;;;12.90;99.90;;;;;;5068213;28;20054;-50
2021/05/14 01:41:42;;;;;;;1.02;0.70;;;12.90;99.90;;;;;;5067471;28;20025;-50
2021/05/14 01:44:08;;;;;;;2.67;0.82;;;12.80;99.90;;;;;;5067243;28;20173;-51
2021/05/14 01:46:35;;;;;;;1.55;0.70;;;12.90;99.90;;;;;;5065883;28;20016;-51
2021/05/14 01:49:00;;;;;;;1.60;0.82;;;12.90;99.90;;;;;;5067727;28;20048;-54
2021/05/14 01:51:28;;;;;;;0.80;0.70;;;12.90;99.90;;;;;;5068091;28;20534;-51
2021/05/14 01:53:54;;;;;;;0.75;0.60;;;12.80;99.90;;;;;;5066580;28;20459;-49
2021/05/14 01:56:20;;;;;;;0.63;0.63;;;13.00;99.90;;;;;;5067014;28;20096;-49
2021/05/14 01:58:48;;;;;;;0.77;0.60;;;13.00;99.90;;;;;;5067039;28;20029;-48
2021/05/14 02:01:14;;;;;;;0.70;0.70;;;13.10;99.90;;;;;;5065554;28;20028;-48
2021/05/14 02:03:40;;;;;;;0.90;0.63;;;13.20;99.90;;;;;;5066677;28;20538;-48
2021/05/14 02:06:06;;;;;;;0.75;0.75;;;13.00;99.90;;;;;;5067576;28;20021;-49
2021/05/14 02:08:32;;;;;;;0.70;0.70;;;12.80;99.90;;;;;;5065382;28;20060;-49
2021/05/14 02:10:58;;;;;;;1.48;0.90;;;12.80;99.90;;;;;;5065258;28;20298;-50
2021/05/14 02:13:24;;;;;;;0.73;0.70;;;12.80;99.90;;;;;;5067084;28;20061;-50
2021/05/14 02:15:50;;;;;;;0.90;0.60;;;12.80;99.90;;;;;;5066656;28;20028;-51
2021/05/14 02:18:17;;;;;;;0.82;0.70;;;12.80;99.90;;;;;;5066491;28;20031;-49
2021/05/14 02:20:43;;;;;;;1.20;0.70;;;12.80;99.90;;;;;;5065753;28;20032;-49
2021/05/14 02:23:08;;;;;;;0.60;0.60;;;12.80;99.90;;;;;;5066952;28;20032;-49
2021/05/14 02:25:34;;;;;;;0.60;0.60;;;12.90;99.90;;;;;;5065756;28;20466;-52
2021/05/14 02:28:01;;;;;;;1.95;0.70;;;12.90;99.90;;;;;;5066541;28;20028;-49
2021/05/14 02:30:26;;;;;;;0.98;0.80;;;12.90;99.90;;;;;;5067049;28;20029;-51
2021/05/14 02:32:52;;;;;;;1.70;1.08;;;12.80;99.90;;;;;;5065311;28;20082;-49
2021/05/14 02:35:18;;;;;;;0.60;0.60;;;13.00;99.90;;;;;;5066551;28;20451;-48
2021/05/14 02:37:44;;;;;;;0.70;0.60;;;13.00;99.90;;;;;;5065234;28;20502;-48
2021/05/14 02:40:11;;;;;;;0.90;0.73;;;13.00;99.90;;;;;;5066332;28;20033;-49
2021/05/14 02:42:37;;;;;;;1.52;0.60;;;13.00;99.90;;;;;;5064538;28;20402;-48
2021/05/14 02:45:05;;;;;;;0.57;0.57;;;12.90;99.90;;;;;;5065458;28;20032;-50
2021/05/14 02:47:31;;;;;;;0.90;0.70;;;12.80;99.90;;;;;;5066176;28;20052;-52
2021/05/14 02:49:57;;;;;;;0.70;0.70;;;12.90;99.90;;;;;;5066573;28;20020;-50
2021/05/14 02:52:23;;;;;;;1.27;0.63;;;13.00;99.90;;;;;;5066662;28;20577;-50
2021/05/14 02:54:48;;;;;;;0.70;0.70;;;12.90;99.90;;;;;;5065848;28;20033;-50
2021/05/14 02:57:16;;;;;;;0.88;0.77;;;12.80;99.90;;;;;;5065982;28;20108;-49
2021/05/14 02:59:42;;;;;;;0.70;0.68;;;12.80;99.90;;;;;;5065745;28;20108;-48
2021/05/14 03:02:08;;;;;;;0.80;0.70;;;12.90;99.90;;;;;;5065985;28;20803;-49
2021/05/14 03:04:34;;;;;;;0.60;0.60;;;12.90;99.90;;;;;;5065653;28;20028;-49
2021/05/14 03:07:01;;;;;;;0.95;0.52;;;13.00;99.90;;;;;;5066471;28;20048;-49
2021/05/14 03:09:27;;;;;;;0.70;0.70;;;13.00;99.90;;;;;;5065215;28;20076;-50
2021/05/14 03:11:53;;;;;;;0.70;0.70;;;13.00;99.90;;;;;;5064016;28;20542;-49
2021/05/14 03:14:19;;;;;;;1.20;1.00;;;12.80;99.90;;;;;;5064893;28;20032;-54
2021/05/14 03:16:45;;;;;;;1.40;1.30;;;12.30;99.90;;;;;;5065172;28;20475;-52
2021/05/14 03:19:11;;;;;;;3.05;1.63;;;12.00;99.90;;;;;;5065261;28;20111;-50
2021/05/14 03:21:37;;;;;;;1.23;1.10;;;11.90;99.90;;;;;;5065357;28;20453;-49
2021/05/14 03:24:03;;;;;;;1.58;1.15;;;11.90;99.90;;;;;;5065157;28;20061;-52
2021/05/14 03:26:30;;;;;;;2.15;1.33;;;11.70;99.90;;;;;;5065299;28;20029;-50
2021/05/14 03:28:56;;;;;;;1.10;1.00;;;11.70;99.90;;;;;;5065393;28;20421;-49
2021/05/14 03:31:21;;;;;;;3.03;1.30;;;11.80;99.90;;;;;;5066060;28;20024;-49
2021/05/14 03:33:47;;;;;;;1.15;1.05;;;11.80;99.90;;;;;;5064843;28;20036;-51
2021/05/14 03:36:16;;;;;;;1.20;1.10;;;11.60;99.90;;;;;;5065313;28;20059;-50
2021/05/14 03:38:42;;;;;;;1.60;1.02;;;11.70;99.90;;;;;;5065109;28;20028;-50
2021/05/14 03:43:52;;;;;;;0.70;0.70;;;11.80;99.90;;;;;;5064737;28;20058;-54
2021/05/14 03:46:17;;;;;;;1.20;0.88;;;11.70;99.90;;;;;;5064291;28;20107;-50
2021/05/14 03:48:43;;;;;;;1.25;0.80;;;11.60;99.90;;;;;;5063946;28;20100;-53
2021/05/14 03:51:09;;;;;;;0.50;0.50;;;11.70;99.90;;;;;;5065519;28;20029;-51
2021/05/14 03:53:35;;;;;;;1.17;0.80;;;11.80;99.90;;;;;;5065001;28;20453;-51
2021/05/14 03:56:02;;;;;;;1.42;0.60;;;11.60;99.90;;;;;;5065723;28;20025;-49
2021/05/14 03:58:28;;;;;;;0.70;0.50;;;11.50;99.90;;;;;;5065864;28;20036;-52
2021/05/14 04:00:53;;;;;;;0.50;0.50;;;11.40;99.90;;;;;;5063391;28;20021;-49
2021/05/14 04:03:21;;;;;;;1.70;0.50;;;11.30;99.90;;;;;;5064993;28;20032;-48
2021/05/14 04:05:48;;;;;;;0.40;0.38;;;11.20;99.90;;;;;;5064758;28;20527;-49
2021/05/14 04:08:13;;;;;;;0.22;0.22;;;11.30;99.90;;;;;;5064846;28;20032;-48
2021/05/14 04:15:59;;;;;;;1.63;0.30;;;11.70;99.90;;;;;;5065794;28;20071;-48
2021/05/14 04:18:25;;;;;;;0.30;0.30;;;11.70;99.90;;;;;;5064853;28;20060;-48
2021/05/14 04:20:50;;;;;;;1.25;0.57;;;11.60;99.90;;;;;;5064745;28;20025;-49
2021/05/14 04:23:16;;;;;;;0.52;0.32;;;11.60;99.90;;;;;;5065389;28;20028;-49
2021/05/14 04:25:42;;;;;;;0.30;0.30;;;11.50;99.90;;;;;;5063660;28;20029;-49
2021/05/14 04:28:08;;;;;;;0.45;0.30;;;11.60;99.90;;;;;;5064583;28;20032;-47
2021/05/14 04:30:34;;;;;;;0.32;0.32;;;11.70;99.90;;;;;;5064612;28;20061;-48
2021/05/14 04:33:00;;;;;;;0.73;0.40;;;11.60;99.90;;;;;;5065223;28;20029;-48
2021/05/14 04:35:29;;;;;;;0.60;0.30;;;11.50;99.90;;;;;;5064858;28;20031;-48
2021/05/14 04:37:54;;;;;;;0.38;0.20;;;11.60;99.90;;;;;;5063874;28;20036;-48
2021/05/14 04:40:21;;;;;;;1.02;0.30;;;11.70;99.90;;;;;;5064927;28;20021;-48
2021/05/14 04:42:47;;;;;;;0.30;0.30;;;11.70;99.90;;;;;;5064574;28;20506;-48
2021/05/14 04:45:13;;;;;;;0.20;0.20;;;11.80;99.90;;;;;;5064817;28;20229;-48
2021/05/14 04:47:39;;;;;;;0.30;0.30;;;11.70;99.90;;;;;;5063509;28;20478;-48
2021/05/14 04:50:05;;;;;;;2.42;0.47;;;11.90;99.90;;;;;;5064540;28;20028;-48
2021/05/14 04:52:31;;;;;;;0.55;0.40;;;11.90;99.90;;;;;;5059768;28;20032;-48
2021/05/14 04:54:58;;;;;;;0.30;0.30;;;11.80;99.90;;;;;;5064875;28;20025;-48
2021/05/14 04:57:25;;;;;;;0.40;0.30;;;11.90;99.90;;;;;;5067247;28;20033;-48
2021/05/14 04:59:50;;;;;;;0.35;0.35;;;11.90;99.90;;;;;;5068274;28;20568;-48
2021/05/14 05:02:16;;;;;;;0.85;0.50;;;12.00;99.90;;;;;;5068262;28;20059;-48
2021/05/14 05:04:42;;;;;;;0.40;0.30;;;11.80;99.90;;;;;;5068004;28;20028;-47
2021/05/14 05:07:08;;;;;;;0.30;0.30;;;11.80;99.90;;;;;;5067986;28;20025;-49
2021/05/14 05:09:37;;;;;;;0.30;0.30;;;11.70;99.90;;;;;;5067910;28;20037;-49
2021/05/14 05:12:04;;;;;;;0.30;0.30;;;11.80;99.90;;;;;;5068001;28;20029;-48
2021/05/14 05:14:29;;;;;;;0.60;0.30;;;11.70;99.90;;;;;;5068426;28;20477;-47
2021/05/14 05:16:55;;;;;;;0.30;0.30;;;11.70;99.90;;;;;;5067844;28;20032;-48
2021/05/14 05:19:21;;;;;;;0.30;0.30;;;11.90;99.90;;;;;;5065640;28;20581;-51
2021/05/14 05:21:50;;;;;;;1.08;0.40;;;12.00;99.90;;;;;;5067561;28;20047;-50
2021/05/14 05:24:16;;;;;;;0.45;0.35;;;12.10;99.90;;;;;;5068044;28;20025;-50
2021/05/14 05:26:41;;;;;;;0.30;0.25;;;12.10;99.90;;;;;;5066630;28;20032;-50
2021/05/14 05:29:07;;;;;;;0.45;0.30;;;12.10;99.90;;;;;;5067807;28;20028;-49
2021/05/14 05:31:32;;;;;;;0.85;0.40;;;12.20;99.90;;;;;;5067289;28;20107;-50
2021/05/14 05:33:58;;;;;;;0.40;0.40;;;12.10;99.90;;;;;;5067213;28;20489;-48
2021/05/14 05:36:24;;;;;;;0.30;0.22;;;12.10;99.90;;;;;;5068343;28;20051;-49
2021/05/14 05:38:50;;;;;;;0.40;0.40;;;12.00;99.90;;;;;;5067284;28;20102;-48
2021/05/14 05:41:17;;;;;;;0.40;0.30;;;12.10;99.90;;;;;;5067771;28;20158;-48
2021/05/14 05:43:44;;;;;;;0.30;0.30;;;12.20;99.90;;;;;;5067269;28;20032;-47
2021/05/14 05:46:11;;;;;;;0.22;0.20;;;12.20;99.90;;;;;;5067371;28;20518;-47
2021/05/14 05:48:38;;;;;;;0.47;0.40;;;12.10;99.90;;;;;;5066969;28;20032;-48
2021/05/14 05:51:06;;;;;;;0.30;0.30;;;12.10;99.90;;;;;;5066956;28;20552;-49
2021/05/14 05:53:32;;;;;;;0.30;0.30;;;12.10;99.90;;;;;;5066669;28;20024;-51
2021/05/14 05:55:59;;;;;;;0.32;0.32;;;12.00;99.90;;;;;;5068018;28;20552;-47
2021/05/14 05:58:25;;;;;;;1.08;0.40;;;12.10;99.90;;;;;;5067381;28;20107;-48
2021/05/14 06:00:51;;;;;;;1.42;0.90;;;12.10;99.90;;;;;;5064634;28;20040;-48
2021/05/14 06:03:16;;;;;;;2.75;1.92;;;12.00;99.90;;;;;;5067128;28;20388;-47
2021/05/14 06:05:42;;;;;;;14.68;6.80;;;12.00;99.90;;;;;;5066891;28;20032;-47
2021/05/14 06:08:08;;;;;;;15.95;8.00;;;12.10;99.90;;;;;;5066871;28;20025;-47
2021/05/14 06:10:35;;;;;;;12.80;6.75;;;12.00;99.90;;;;;;5065978;28;20445;-48
2021/05/14 06:13:01;;;;;;;14.75;7.35;;;12.10;99.90;;;;;;5066820;28;20017;-48
2021/05/14 06:15:27;;;;;;;13.90;7.15;;;12.00;99.90;;;;;;5067301;28;20032;-48
2021/05/14 06:17:53;;;;;;;11.30;5.68;;;12.00;99.90;;;;;;5066760;28;20020;-47
2021/05/14 06:20:23;;;;;;;13.02;5.65;;;12.10;99.90;;;;;;5066777;28;20033;-49
2021/05/14 06:22:48;;;;;;;19.50;8.85;;;12.00;99.90;;;;;;5063488;28;20031;-48
2021/05/14 06:25:14;;;;;;;14.63;6.57;;;12.00;99.90;;;;;;5066491;28;20028;-49
2021/05/14 06:27:40;;;;;;;18.08;8.68;;;12.10;99.90;;;;;;5066290;28;20410;-47
2021/05/14 06:30:07;;;;;;;18.02;8.30;;;12.00;99.90;;;;;;5066589;28;20028;-48
2021/05/14 06:32:33;;;;;;;17.38;8.23;;;12.10;99.90;;;;;;5066240;28;20024;-48
2021/05/14 06:34:59;;;;;;;14.32;7.28;;;12.10;99.90;;;;;;5066201;28;20020;-47
2021/05/14 06:37:24;;;;;;;12.55;6.55;;;12.10;99.90;;;;;;5065767;28;20078;-48
2021/05/14 06:39:50;;;;;;;11.68;5.35;;;12.00;99.90;;;;;;5063134;28;20036;-48
2021/05/14 06:42:16;;;;;;;6.07;3.83;;;12.20;99.90;;;;;;5065270;28;20029;-48
2021/05/14 06:44:42;;;;;;;5.97;3.30;;;12.20;99.90;;;;;;5066448;28;20039;-49
2021/05/14 06:47:07;;;;;;;3.50;2.28;;;12.20;99.90;;;;;;5065570;28;20399;-48
2021/05/14 06:49:33;;;;;;;3.80;2.30;;;12.30;99.90;;;;;;5068467;28;20063;-48
2021/05/14 06:51:59;;;;;;;3.75;2.38;;;12.20;99.90;;;;;;5069276;28;20021;-48
2021/05/14 06:54:26;;;;;;;3.40;2.10;;;12.10;99.90;;;;;;5067720;28;20035;-48
2021/05/14 06:56:51;;;;;;;1.88;1.45;;;12.00;99.90;;;;;;5067231;28;20112;-48
2021/05/14 06:59:18;;;;;;;2.70;1.67;;;12.10;99.90;;;;;;5064996;28;20549;-49
2021/05/14 07:01:44;;;;;;;3.20;1.90;;;12.20;99.90;;;;;;5063593;28;20019;-48
2021/05/14 07:04:10;;;;;;;1.60;1.35;;;12.20;99.90;;;;;;5067530;28;20020;-48
2021/05/14 07:06:36;;;;;;;1.92;1.20;;;12.10;99.90;;;;;;5065098;28;20596;-48
2021/05/14 07:09:02;;;;;;;1.73;1.40;;;12.00;99.90;;;;;;5064311;28;20033;-51
2021/05/14 07:11:28;;;;;;;1.40;0.85;;;12.00;99.90;;;;;;5063561;28;20023;-50
2021/05/14 07:13:53;;;;;;;0.93;0.75;;;11.90;99.90;;;;;;5066562;28;20411;-52
2021/05/14 07:16:19;;;;;;;1.00;0.50;;;11.80;99.90;;;;;;5062293;28;20021;-51
2021/05/14 07:18:45;;;;;;;0.65;0.45;;;11.80;99.90;;;;;;5065940;28;20024;-51
2021/05/14 07:21:10;;;;;;;0.65;0.43;;;11.80;99.90;;;;;;5065803;28;20378;-52
2021/05/14 07:23:36;;;;;;;0.82;0.40;;;11.80;99.90;;;;;;5066534;28;20498;-50
2021/05/14 07:26:02;;;;;;;0.40;0.32;;;11.60;99.90;;;;;;5064344;28;20062;-50
2021/05/14 07:28:27;;;;;;;0.63;0.40;;;11.60;99.90;;;;;;5063534;28;20494;-50
2021/05/14 07:30:53;;;;;;;0.40;0.35;;;11.70;99.90;;;;;;5064770;28;20020;-50
2021/05/14 07:33:19;;;;;;;0.30;0.30;;;11.80;99.90;;;;;;5066601;28;20029;-48
2021/05/14 07:35:45;;;;;;;0.50;0.50;;;11.60;99.90;;;;;;5066489;28;20489;-46
2021/05/14 07:38:11;;;;;;;0.32;0.32;;;11.60;99.90;;;;;;5066825;28;20483;-47
2021/05/14 07:40:39;;;;;;;0.30;0.30;;;11.60;99.90;;;;;;5066140;28;20515;-48
2021/05/14 07:43:04;;;;;;;0.20;0.20;;;11.70;99.90;;;;;;5063771;28;20028;-47
2021/05/14 07:45:30;;;;;;;0.30;0.30;;;11.80;99.90;;;;;;5064327;28;20043;-47
2021/05/14 07:47:56;;;;;;;0.30;0.30;;;11.90;99.90;;;;;;5065767;28;20033;-47
2021/05/14 07:50:23;;;;;;;0.20;0.20;;;12.00;99.90;;;;;;5065383;28;20024;-49
2021/05/14 07:52:49;;;;;;;0.20;0.20;;;12.00;99.90;;;;;;5065050;28;20061;-49
2021/05/14 07:55:14;;;;;;;0.15;0.15;;;12.20;99.90;;;;;;5065315;28;20039;-48
2021/05/14 07:57:40;;;;;;;0.50;0.20;;;12.30;99.90;;;;;;5064743;28;20039;-48
2021/05/14 08:00:06;;;;;;;1.30;0.38;;;12.30;99.90;;;;;;5064769;28;20025;-47
2021/05/14 08:02:32;;;;;;;0.30;0.30;;;12.30;99.90;;;;;;5064729;28;20020;-47
2021/05/14 08:04:58;;;;;;;0.32;0.30;;;12.40;99.90;;;;;;5065726;28;20491;-47
2021/05/14 08:07:23;;;;;;;0.93;0.75;;;12.60;99.90;;;;;;5065014;28;20102;-47
2021/05/14 08:09:49;;;;;;;0.22;0.20;;;12.90;99.90;;;;;;5064706;28;20033;-48
2021/05/14 08:12:15;;;;;;;0.38;0.30;;;13.10;99.90;;;;;;5064584;28;20031;-48
2021/05/14 08:14:40;;;;;;;0.30;0.30;;;13.10;99.90;;;;;;5064417;28;20097;-48
2021/05/14 08:17:06;;;;;;;0.30;0.30;;;13.20;99.90;;;;;;5063405;28;20087;-48
2021/05/14 08:19:32;;;;;;;0.30;0.30;;;13.10;99.90;;;;;;5064817;28;20020;-48
2021/05/14 08:21:58;;;;;;;0.25;0.25;;;13.10;99.90;;;;;;5065557;28;20036;-48
2021/05/14 08:24:24;;;;;;;0.30;0.30;;;13.10;99.90;;;;;;5064157;28;20028;-49
2021/05/14 08:26:50;;;;;;;0.20;0.20;;;13.10;99.90;;;;;;5064061;28;20055;-48
2021/05/14 08:29:16;;;;;;;0.38;0.20;;;13.20;99.90;;;;;;5064770;28;20029;-47
2021/05/14 08:31:42;;;;;;;0.20;0.20;;;12.90;99.90;;;;;;5066360;28;20082;-48
2021/05/14 08:34:09;;;;;;;0.20;0.20;;;13.10;99.90;;;;;;5068952;28;20498;-47
2021/05/14 08:36:35;;;;;;;0.30;0.20;;;13.20;99.90;;;;;;5068461;28;20448;-49
2021/05/14 08:39:01;;;;;;;0.30;0.30;;;13.10;99.90;;;;;;5068993;28;20099;-49
2021/05/14 08:41:27;;;;;;;0.95;0.30;;;13.00;99.90;;;;;;5069488;28;20474;-49
2021/05/14 08:43:54;;;;;;;0.30;0.30;;;12.90;99.90;;;;;;5068311;28;20025;-48
2021/05/14 08:46:24;;;;;;;0.57;0.20;;;13.10;99.90;;;;;;5068630;28;20032;-48
2021/05/14 08:48:54;;;;;;;0.20;0.20;;;13.20;99.90;;;;;;5068356;28;20440;-47
2021/05/14 08:51:28;;;;;;;0.63;0.40;;;13.20;99.90;;;;;;5068480;28;20036;-49
2021/05/14 08:54:04;;;;;;;0.30;0.20;;;13.50;99.90;;;;;;5065100;28;20027;-47
2021/05/14 08:56:31;;;;;;;0.57;0.30;;;13.50;99.90;;;;;;5069862;28;20052;-48
2021/05/14 08:58:57;;;;;;;0.30;0.30;;;13.30;99.90;;;;;;5070065;28;20059;-47
2021/05/14 09:01:24;;;;;;;1.33;0.25;;;13.40;99.90;;;;;;5063271;28;20464;-48
2021/05/14 09:03:59;;;;;;;1.60;0.28;;;13.50;99.90;;;;;;5067817;28;20669;-48
2021/05/14 09:06:29;;;;;;;0.52;0.30;;;13.40;99.90;;;;;;5071735;28;20032;-51
2021/05/14 09:08:56;;;;;;;0.93;0.40;;;13.50;99.90;;;;;;5063182;28;20032;-50
2021/05/14 09:11:40;;;;;;;1.23;0.30;;;13.60;99.90;;;;;;5066054;28;20056;-49
2021/05/14 09:14:27;;;;;;;0.95;0.40;;;13.60;99.90;;;;;;5066047;28;20035;-52
2021/05/14 09:16:53;;;;;;;0.30;0.30;;;13.60;99.90;;;;;;5067395;28;20024;-49
2021/05/14 09:19:34;;;;;;;0.85;0.40;;;13.80;99.90;;;;;;5069047;28;20111;-51
2021/05/14 09:22:17;;;;;;;0.88;0.60;;;13.90;99.90;;;;;;5065777;28;20036;-51
2021/05/14 09:24:47;;;;;;;0.52;0.40;;;14.00;99.90;;;;;;5067772;28;20020;-50
2021/05/14 09:27:39;;;;;;;0.40;0.40;;;14.00;99.90;;;;;;5072178;28;20074;-48
2021/05/14 09:30:09;;;;;;;0.40;0.40;;;14.30;99.90;;;;;;5067848;28;20469;-51
2021/05/14 09:32:36;;;;;;;0.43;0.25;;;14.00;99.90;;;;;;5068496;28;20123;-49
2021/05/14 09:35:05;;;;;;;0.30;0.30;;;14.10;99.90;;;;;;5067474;28;20467;-50
2021/05/14 09:37:31;;;;;;;0.47;0.40;;;14.30;99.90;;;;;;5068637;28;20024;-52
2021/05/14 09:40:19;;;;;;;0.30;0.30;;;14.40;99.90;;;;;;5057215;28;20495;-52
2021/05/14 09:42:47;;;;;;;0.38;0.20;;;14.40;99.90;;;;;;5046827;28;20581;-51
2021/05/14 09:45:24;;;;;;;0.25;0.25;;;14.30;99.90;;;;;;5049137;28;20057;-49
2021/05/14 09:48:14;;;;;;;0.25;0.25;;;14.40;99.90;;;;;;5053914;28;20044;-51
2021/05/14 09:50:39;;;;;;;0.88;0.20;;;14.50;99.90;;;;;;5047739;28;20049;-49
2021/05/14 09:53:13;;;;;;;0.20;0.20;;;14.60;99.90;;;;;;5047674;28;20057;-47
2021/05/14 09:55:50;;;;;;;0.30;0.30;;;14.60;99.90;;;;;;5047323;28;20013;-47
2021/05/14 09:58:24;;;;;;;0.28;0.28;;;14.70;99.90;;;;;;5047077;28;20036;-48
2021/05/14 10:00:49;;;;;;;0.57;0.30;;;14.80;99.90;;;;;;5052378;28;20023;-48
2021/05/14 10:03:20;;;;;;;1.00;0.30;;;14.70;99.90;;;;;;5067372;28;20044;-50
2021/05/14 10:05:47;;;;;;;0.30;0.30;;;14.70;99.90;;;;;;5064977;28;20013;-51
2021/05/14 10:08:19;;;;;;;0.35;0.35;;;14.70;99.90;;;;;;5065093;28;20518;-50
2021/05/14 10:10:46;;;;;;;0.40;0.40;;;14.30;99.90;;;;;;5067577;28;20392;-49
2021/05/14 10:13:12;;;;;;;0.90;0.43;;;14.20;99.90;;;;;;5068932;28;20039;-50
2021/05/14 10:15:39;;;;;;;1.00;0.50;;;14.40;99.90;;;;;;5068208;28;20025;-51
2021/05/14 10:18:07;;;;;;;1.20;0.50;;;14.60;99.90;;;;;;5067495;28;20024;-50
2021/05/14 10:20:36;;;;;;;0.35;0.35;;;14.40;99.90;;;;;;5068213;28;20040;-47
2021/05/14 10:23:03;;;;;;;0.73;0.32;;;14.50;99.90;;;;;;5066662;28;20082;-50
2021/05/14 10:25:39;;;;;;;0.25;0.25;;;14.50;99.90;;;;;;5067918;28;20043;-51
2021/05/14 10:28:13;;;;;;;0.35;0.30;;;14.60;99.90;;;;;;5066818;28;20040;-48
2021/05/14 10:30:57;;;;;;;;;;;14.60;99.90;;;;;;5066513;28;20060;-49
2021/05/14 10:33:43;;;;;;;1.10;0.30;;;14.50;99.90;;;;;;5068208;28;20323;-49
2021/05/14 10:36:14;;;;;;;0.77;0.30;;;14.50;99.90;;;;;;5057129;28;20081;-49
2021/05/14 10:38:40;;;;;;;0.30;0.30;;;14.70;99.90;;;;;;5063077;28;20024;-52
2021/05/14 10:41:53;;;;;;;0.65;0.30;;;14.80;99.90;;;;;;5063907;28;20040;-48
2021/05/14 10:44:45;;;;;;;0.60;0.40;;;14.80;99.90;;;;;;5048738;28;20064;-52
2021/05/14 10:47:26;;;;;;;0.30;0.25;;;15.00;99.90;;;;;;5081292;28;20103;-47
2021/05/14 10:52:27;;;;;;;0.50;0.50;;;14.90;99.90;;;;;;5053543;28;20102;-51
2021/05/14 10:54:53;;;;;;;0.98;0.43;;;14.80;99.90;;;;;;5065840;28;20024;-52
2021/05/14 10:57:54;;;;;;;0.40;0.40;;;14.90;99.90;;;;;;5067175;28;20017;-52
2021/05/14 11:00:23;;;;;;;0.40;0.40;;;14.90;99.90;;;;;;5044829;28;20032;-49
2021/05/14 11:03:13;;;;;;;0.45;0.30;;;13.60;99.90;;;;;;5059276;28;20469;-50
2021/05/14 11:05:42;;;;;;;0.47;0.47;;;13.40;99.90;;;;;;5053859;28;20028;-50
2021/05/14 11:08:11;;;;;;;0.30;0.30;;;13.40;99.90;;;;;;5062794;28;20043;-52
2021/05/14 11:10:39;;;;;;;0.88;0.75;;;13.60;99.90;;;;;;5065189;28;20025;-49
2021/05/14 11:13:38;;;;;;;1.10;1.00;;;13.80;99.90;;;;;;5065239;28;20555;-49
2021/05/14 11:16:43;;;;;;;2.15;0.90;;;14.00;99.90;;;;;;5054872;28;20109;-51
2021/05/14 11:19:13;;;;;;;1.02;0.80;;;14.20;99.90;;;;;;5066630;28;20051;-49
2021/05/14 11:22:15;;;;;;;1.23;1.00;;;14.30;99.90;;;;;;5062872;28;20024;-52
2021/05/14 11:24:41;;;;;;;1.00;0.60;;;14.80;99.90;;;;;;5049693;28;20043;-51
2021/05/14 11:27:16;;;;;;;0.63;0.40;;;14.70;99.90;;;;;;5064274;28;20098;-48
2021/05/14 11:29:48;;;;;;;0.50;0.50;;;14.20;99.90;;;;;;5062546;28;20029;-50
2021/05/14 11:32:33;;;;;;;0.32;0.30;;;14.10;99.90;;;;;;5052630;28;20092;-47
2021/05/14 11:35:04;;;;;;;0.40;0.40;;;13.90;99.90;;;;;;5062364;28;20033;-51
2021/05/14 11:37:34;;;;;;;0.55;0.40;;;13.80;99.90;;;;;;5046701;28;20036;-52
2021/05/14 11:40:12;;;;;;;1.30;0.38;;;13.70;99.90;;;;;;5062867;28;20708;-49
2021/05/14 11:42:48;;;;;;;0.50;0.40;;;13.80;99.90;;;;;;5064105;28;20036;-52
2021/05/14 11:45:17;;;;;;;0.20;0.20;;;13.90;99.90;;;;;;5060886;28;20025;-53
2021/05/14 11:47:54;;;;;;;0.30;0.30;;;13.80;99.90;;;;;;5063587;28;20518;-48
2021/05/14 11:50:31;;;;;;;0.30;0.30;;;;;;;;;;5054791;28;20450;-47
2021/05/14 11:52:58;;;;;;;0.70;0.40;;;13.60;99.90;;;;;;5063185;28;20640;-50
2021/05/14 11:55:25;;;;;;;1.42;0.30;;;13.80;99.90;;;;;;5062279;28;20113;-47
2021/05/14 11:57:55;;;;;;;8.75;2.08;;;13.60;99.90;;;;;;5059918;28;20028;-51
2021/05/14 12:00:41;;;;;;;4.00;1.20;;;13.30;99.90;;;;;;5064222;28;20033;-50
2021/05/14 12:03:08;;;;;;;2.97;1.08;;;13.80;99.90;;;;;;5071732;28;20028;-51
2021/05/14 12:05:36;;;;;;;3.53;0.82;;;13.30;99.90;;;;;;5074622;28;20078;-52
2021/05/14 12:08:15;;;;;;;1.73;0.70;;;13.60;99.90;;;;;;5065727;28;20062;-48
2021/05/14 12:10:48;;;;;;;1.23;0.47;;;13.40;99.90;;;;;;5064480;28;20495;-47
2021/05/14 12:13:16;;;;;;;0.67;0.50;;;13.50;99.90;;;;;;5065676;28;20391;-50
2021/05/14 12:15:42;;;;;;;0.43;0.28;;;13.00;99.90;;;;;;5063261;28;20324;-48
2021/05/14 12:18:09;;;;;;;0.20;0.20;;;13.40;99.90;;;;;;5060016;28;20032;-48
2021/05/14 12:20:42;;;;;;;1.42;0.47;;;13.50;99.90;;;;;;5058886;28;20032;-48
2021/05/14 12:23:10;;;;;;;1.05;0.47;;;13.40;99.90;;;;;;5057997;28;20037;-49
2021/05/14 12:25:49;;;;;;;0.45;0.40;;;13.20;99.90;;;;;;5066995;28;20573;-52
2021/05/14 12:28:35;;;;;;;0.40;0.40;;;13.00;99.90;;;;;;5060577;28;20111;-51
2021/05/14 12:31:21;;;;;;;0.40;0.40;;;13.10;99.90;;;;;;5058668;28;20588;-52
2021/05/14 12:34:12;;;;;;;1.42;0.50;;;13.20;99.90;;;;;;5059546;28;20036;-48
2021/05/14 12:36:40;;;;;;;0.43;0.40;;;13.40;99.90;;;;;;5061018;28;20033;-47
2021/05/14 12:39:13;;;;;;;0.40;0.40;;;13.20;99.90;;;;;;5063760;28;20032;-49
2021/05/14 12:41:49;;;;;;;0.28;0.28;;;13.40;99.90;;;;;;5057234;28;20077;-51
2021/05/14 12:44:20;;;;;;;0.20;0.20;;;13.50;99.90;;;;;;5057863;28;20100;-48
2021/05/14 12:47:01;;;;;;;0.20;0.20;;;13.40;99.90;;;;;;5062637;28;20090;-48
2021/05/14 12:49:28;;;;;;;0.30;0.30;;;13.60;99.90;;;;;;5066303;28;20016;-49
2021/05/14 12:52:10;;;;;;;0.30;0.30;;;13.30;99.90;;;;;;5064861;28;20055;-50
2021/05/14 12:54:37;;;;;;;0.25;0.25;;;13.10;99.90;;;;;;5059142;28;20017;-50
2021/05/14 12:57:03;;;;;;;0.40;0.40;;;12.90;99.90;;;;;;5064266;28;20028;-49
2021/05/14 12:59:29;;;;;;;0.60;0.60;;;12.70;99.90;;;;;;5063781;28;20367;-47
2021/05/14 13:01:56;;;;;;;3.65;1.23;;;12.20;99.90;;;;;;5062544;28;20037;-51
2021/05/14 13:04:31;;;;;;;7.72;1.70;;;11.90;99.90;;;;;;5058331;28;20021;-48
2021/05/14 13:07:07;;;;;;;3.00;0.85;;;11.20;99.90;;;;;;5064821;28;20111;-49